Time,TemperatureF,DewpointF,PressureIn,WindDirection,WindDirectionDegrees,WindSpeedMPH,WindSpeedGustMPH,Humidity,HourlyPrecipIn,Conditions,Clouds,dailyrainin,SolarRadiationWatts/m^2,SoftwareType,DateUTC
2013-08-02 00:12:00,67.0,57.0,-100.00,South,169,16.0,23.0,71,0.00,,,0.05,0.000000,,2013-08-02 06:12:00,
2013-08-02 00:22:00,67.0,57.0,-100.00,South,169,16.0,23.0,71,0.00,,,0.05,0.000000,,2013-08-02 06:22:00,
2013-08-02 00:33:00,67.0,57.0,-100.00,South,169,16.0,23.0,71,0.00,,,0.05,0.000000,,2013-08-02 06:33:00,
2013-08-02 00:43:00,67.0,57.0,-100.00,South,169,16.0,23.0,71,0.00,,,0.05,0.000000,,2013-08-02 06:43:00,
2013-08-02 00:51:00,64.0,59.0,-100.00,North,358,7.0,23.0,83,0.00,,,0.05,0.000000,,2013-08-02 06:51:00,
2013-08-02 01:12:00,64.0,59.0,-100.00,North,358,7.0,23.0,83,0.00,,,0.05,0.000000,,2013-08-02 07:12:00,
2013-08-02 01:22:00,64.0,59.0,-100.00,North,358,7.0,23.0,83,0.00,,,0.05,0.000000,,2013-08-02 07:22:00,
2013-08-02 01:33:00,64.0,59.0,-100.00,North,358,7.0,23.0,83,0.00,,,0.05,0.000000,,2013-08-02 07:33:00,
2013-08-02 01:44:00,64.0,59.0,-100.00,North,358,7.0,23.0,83,0.00,,,0.05,0.000000,,2013-08-02 07:44:00,
2013-08-02 01:51:00,67.0,58.0,-100.00,NE,49,11.0,16.0,73,0.00,,,0.05,0.000000,,2013-08-02 07:51:00,
2013-08-02 02:12:00,67.0,58.0,-100.00,NE,49,11.0,16.0,73,0.00,,,0.05,0.000000,,2013-08-02 08:12:00,
2013-08-02 02:22:00,67.0,58.0,-100.00,NE,49,11.0,16.0,73,0.00,,,0.05,0.000000,,2013-08-02 08:22:00,
2013-08-02 02:33:00,67.0,58.0,-100.00,NE,49,11.0,16.0,73,0.00,,,0.05,0.000000,,2013-08-02 08:33:00,
2013-08-02 02:43:00,67.0,58.0,-100.00,NE,49,11.0,16.0,73,0.00,,,0.05,0.000000,,2013-08-02 08:43:00,
2013-08-02 02:51:00,60.0,54.0,-100.00,ENE,65,17.0,24.0,82,0.00,,,0.05,0.000000,,2013-08-02 08:51:00,
2013-08-02 03:12:00,60.0,54.0,-100.00,ENE,65,17.0,24.0,82,0.00,,,0.05,0.000000,,2013-08-02 09:12:00,
2013-08-02 03:23:00,60.0,54.0,-100.00,ENE,65,17.0,24.0,82,0.00,,,0.05,0.000000,,2013-08-02 09:23:00,
2013-08-02 03:33:00,60.0,54.0,-100.00,ENE,65,17.0,24.0,82,0.00,,,0.05,0.000000,,2013-08-02 09:33:00,
2013-08-02 03:43:00,60.0,54.0,-100.00,ENE,65,17.0,24.0,82,0.00,,,0.05,0.000000,,2013-08-02 09:43:00,
2013-08-02 03:51:00,58.0,52.0,-100.00,East,92,21.0,29.0,81,0.00,,,0.05,0.000000,,2013-08-02 09:51:00,
2013-08-02 04:12:00,58.0,52.0,-100.00,East,92,21.0,29.0,81,0.00,,,0.05,0.000000,,2013-08-02 10:12:00,
2013-08-02 04:23:00,58.0,52.0,-100.00,East,92,21.0,29.0,81,0.00,,,0.05,0.000000,,2013-08-02 10:23:00,
2013-08-02 04:33:00,58.0,52.0,-100.00,East,92,21.0,29.0,81,0.00,,,0.05,0.000000,,2013-08-02 10:33:00,
2013-08-02 04:43:00,58.0,52.0,-100.00,East,92,21.0,29.0,81,0.00,,,0.05,0.000000,,2013-08-02 10:43:00,
2013-08-02 04:51:00,57.0,53.0,-100.00,ENE,73,12.0,27.0,86,0.00,,,0.05,0.000000,,2013-08-02 10:51:00,
2013-08-02 05:12:00,57.0,53.0,-100.00,ENE,73,12.0,27.0,86,0.00,,,0.05,0.000000,,2013-08-02 11:12:00,
2013-08-02 05:23:00,57.0,53.0,-100.00,ENE,73,12.0,27.0,86,0.00,,,0.05,0.000000,,2013-08-02 11:23:00,
2013-08-02 05:32:00,57.0,53.0,-100.00,ENE,73,12.0,27.0,86,0.00,,,0.05,0.000000,,2013-08-02 11:32:00,
2013-08-02 05:43:00,57.0,53.0,-100.00,ENE,73,12.0,27.0,86,0.00,,,0.05,0.000000,,2013-08-02 11:43:00,
2013-08-02 05:51:00,56.0,52.0,-100.00,ENE,61,11.0,16.0,85,0.00,,,0.05,0.000000,,2013-08-02 11:51:00,
2013-08-02 06:12:00,56.0,52.0,-100.00,ENE,61,11.0,16.0,85,0.00,,,0.05,0.000000,,2013-08-02 12:12:00,
2013-08-02 06:22:00,56.0,52.0,-100.00,ENE,61,11.0,16.0,85,0.00,,,0.05,0.000000,,2013-08-02 12:22:00,
2013-08-02 06:32:00,56.0,52.0,-100.00,ENE,61,11.0,16.0,85,0.00,,,0.05,0.000000,,2013-08-02 12:32:00,
2013-08-02 06:43:00,56.0,52.0,-100.00,ENE,61,11.0,16.0,85,0.00,,,0.05,0.000000,,2013-08-02 12:43:00,
2013-08-02 06:51:00,59.0,54.0,-100.00,NE,49,5.0,17.0,83,0.00,,,0.05,30.000000,,2013-08-02 12:51:00,
2013-08-02 07:12:00,59.0,54.0,-100.00,NE,49,5.0,17.0,83,0.00,,,0.05,30.000000,,2013-08-02 13:12:00,
2013-08-02 07:22:00,59.0,54.0,-100.00,NE,49,5.0,17.0,83,0.00,,,0.05,30.000000,,2013-08-02 13:22:00,
2013-08-02 07:33:00,59.0,54.0,-100.00,NE,49,5.0,17.0,83,0.00,,,0.05,30.000000,,2013-08-02 13:33:00,
2013-08-02 07:43:00,59.0,54.0,-100.00,NE,49,5.0,17.0,83,0.00,,,0.05,30.000000,,2013-08-02 13:43:00,
2013-08-02 07:51:00,60.0,53.0,-100.00,ENE,76,6.0,12.0,78,0.00,,,0.05,162.000000,,2013-08-02 13:51:00,
2013-08-02 08:12:00,60.0,53.0,-100.00,ENE,76,6.0,12.0,78,0.00,,,0.05,162.000000,,2013-08-02 14:12:00,
2013-08-02 08:22:00,60.0,53.0,-100.00,ENE,76,6.0,12.0,78,0.00,,,0.05,162.000000,,2013-08-02 14:22:00,
2013-08-02 08:32:00,60.0,53.0,-100.00,ENE,76,6.0,12.0,78,0.00,,,0.05,162.000000,,2013-08-02 14:32:00,
2013-08-02 08:43:00,60.0,53.0,-100.00,ENE,76,6.0,12.0,78,0.00,,,0.05,162.000000,,2013-08-02 14:43:00,
2013-08-02 08:51:00,62.0,54.0,-100.00,NE,53,8.0,13.0,74,0.00,,,-99.99,341.000000,,2013-08-02 14:51:00,
2013-08-02 09:12:00,62.0,54.0,-100.00,NE,53,8.0,13.0,74,0.00,,,-99.99,341.000000,,2013-08-02 15:12:00,
2013-08-02 09:22:00,62.0,54.0,-100.00,NE,53,8.0,13.0,74,0.00,,,-99.99,341.000000,,2013-08-02 15:22:00,
2013-08-02 09:32:00,62.0,54.0,-100.00,NE,53,8.0,13.0,74,0.00,,,-99.99,341.000000,,2013-08-02 15:32:00,
2013-08-02 09:43:00,62.0,54.0,-100.00,NE,53,8.0,13.0,74,0.00,,,-99.99,341.000000,,2013-08-02 15:43:00,
2013-08-02 09:51:00,67.0,54.0,-100.00,East,87,6.0,13.0,64,0.00,,,-99.99,510.000000,,2013-08-02 15:51:00,
2013-08-02 10:12:00,67.0,54.0,-100.00,East,87,6.0,13.0,64,0.00,,,-99.99,510.000000,,2013-08-02 16:12:00,
2013-08-02 10:22:00,67.0,54.0,-100.00,East,87,6.0,13.0,64,0.00,,,-99.99,510.000000,,2013-08-02 16:22:00,
2013-08-02 10:32:00,67.0,54.0,-100.00,East,87,6.0,13.0,64,0.00,,,-99.99,510.000000,,2013-08-02 16:32:00,
2013-08-02 10:43:00,67.0,54.0,-100.00,East,87,6.0,13.0,64,0.00,,,-99.99,510.000000,,2013-08-02 16:43:00,
2013-08-02 11:12:00,70.0,55.0,-100.00,ESE,123,7.0,14.0,58,0.00,,,0.00,734.000000,,2013-08-02 17:12:00,
2013-08-02 11:22:00,70.0,55.0,-100.00,ESE,123,7.0,14.0,58,0.00,,,0.00,734.000000,,2013-08-02 17:22:00,
2013-08-02 11:35:00,70.0,55.0,-100.00,ESE,123,7.0,14.0,58,0.00,,,0.00,734.000000,,2013-08-02 17:35:00,